Time;durP1;ratioP1;P1;durP2;ratioP2;P2;SDS_P1;SDS_P2;PMS_P1;PMS_P2;Temp;Humidity;BMP_temperature;BMP_pressure;BME280_temperature;BME280_humidity;BME280_pressure;Samples;Min_cycle;Max_cycle;Signal;HPM_P1;HPM_P2
2022/06/19 00:01:03;;;;;;;1.38;0.82;;;20.60;54.30;;;;;;5079423;28;20062;-61
2022/06/19 00:03:41;;;;;;;1.70;0.90;;;20.50;54.30;;;;;;5084308;28;20036;-60
2022/06/19 00:06:08;;;;;;;0.47;0.47;;;20.60;54.30;;;;;;5081853;28;20024;-61
2022/06/19 00:08:34;;;;;;;0.80;0.65;;;20.50;54.20;;;;;;5091471;28;20589;-61
2022/06/19 00:11:01;;;;;;;0.93;0.80;;;20.50;54.10;;;;;;5089484;28;20024;-62
2022/06/19 00:13:27;;;;;;;5.00;1.05;;;20.40;54.00;;;;;;5077173;28;20032;-60
2022/06/19 00:15:54;;;;;;;1.15;0.57;;;20.40;54.00;;;;;;5090735;28;20123;-60
2022/06/19 00:18:21;;;;;;;0.77;0.70;;;20.40;54.00;;;;;;5074913;28;20028;-61
2022/06/19 00:20:47;;;;;;;2.75;0.68;;;20.40;53.90;;;;;;5084410;28;20032;-61
2022/06/19 00:23:12;;;;;;;1.33;0.85;;;20.40;53.80;;;;;;5091145;28;20344;-61
2022/06/19 00:25:39;;;;;;;3.42;0.90;;;20.30;53.80;;;;;;5087007;28;20068;-61
2022/06/19 00:28:05;;;;;;;0.73;0.73;;;20.20;53.90;;;;;;5084616;28;20043;-61
2022/06/19 00:30:32;;;;;;;4.13;1.00;;;20.20;54.10;;;;;;5081434;28;20682;-61
2022/06/19 00:32:58;;;;;;;1.10;0.68;;;20.10;54.20;;;;;;5083612;28;20031;-63
2022/06/19 00:35:26;;;;;;;1.42;0.98;;;20.10;54.40;;;;;;5082406;28;20488;-61
2022/06/19 00:37:53;;;;;;;1.75;0.60;;;20.10;54.40;;;;;;5077593;28;20023;-61
2022/06/19 00:40:19;;;;;;;1.05;0.50;;;20.00;54.40;;;;;;5082456;28;20093;-62
2022/06/19 00:42:45;;;;;;;2.83;0.95;;;20.00;54.40;;;;;;5074816;28;20028;-60
2022/06/19 00:45:52;;;;;;;1.02;0.93;;;20.00;54.50;;;;;;5080319;28;20040;-63
2022/06/19 00:48:30;;;;;;;0.50;0.50;;;20.00;54.50;;;;;;5041046;28;20049;-62
2022/06/19 00:51:04;;;;;;;1.23;0.82;;;19.90;54.60;;;;;;5072084;28;20041;-62
2022/06/19 00:53:42;;;;;;;4.57;0.93;;;19.90;54.70;;;;;;5076936;28;20495;-62
2022/06/19 00:56:16;;;;;;;3.67;1.13;;;19.90;54.80;;;;;;5083697;28;20020;-61
2022/06/19 00:58:43;;;;;;;1.50;0.98;;;19.90;55.00;;;;;;5092511;28;20032;-61
2022/06/19 01:01:14;;;;;;;1.85;1.08;;;19.90;55.10;;;;;;5090365;28;20118;-61
2022/06/19 01:03:58;;;;;;;2.50;1.00;;;19.80;55.30;;;;;;5091366;28;20062;-61
2022/06/19 01:06:25;;;;;;;4.75;1.05;;;19.70;55.50;;;;;;5079051;28;20378;-63
2022/06/19 01:08:51;;;;;;;1.40;0.85;;;19.60;55.70;;;;;;5093519;28;20483;-62
2022/06/19 01:11:19;;;;;;;0.40;0.40;;;19.60;55.80;;;;;;5076375;28;20032;-62
2022/06/19 01:13:45;;;;;;;2.25;0.65;;;19.50;55.90;;;;;;5086479;28;20586;-63
2022/06/19 01:16:13;;;;;;;1.67;0.90;;;19.50;56.00;;;;;;5082777;28;20077;-62
2022/06/19 01:18:40;;;;;;;1.27;0.77;;;19.50;55.90;;;;;;5086873;28;20069;-62
2022/06/19 01:21:25;;;;;;;2.92;0.80;;;19.40;55.90;;;;;;5095164;28;20027;-63
2022/06/19 01:23:59;;;;;;;3.80;1.15;;;19.50;55.80;;;;;;5080515;28;20447;-62
2022/06/19 01:26:27;;;;;;;1.35;0.60;;;19.40;55.70;;;;;;5081070;28;20051;-63
2022/06/19 01:28:56;;;;;;;3.28;0.98;;;19.40;55.70;;;;;;5085144;28;20032;-62
2022/06/19 01:31:47;;;;;;;3.78;0.75;;;19.30;55.60;;;;;;5088011;28;20114;-61
2022/06/19 01:34:31;;;;;;;3.03;1.13;;;19.30;55.50;;;;;;5085923;28;20040;-62
2022/06/19 01:37:07;;;;;;;6.90;0.95;;;19.30;55.50;;;;;;5081405;28;20025;-63
2022/06/19 01:39:41;;;;;;;2.70;1.10;;;19.20;55.20;;;;;;5073163;28;20808;-62
2022/06/19 01:42:08;;;;;;;1.27;0.50;;;19.10;55.10;;;;;;5081386;28;20030;-62
2022/06/19 01:44:34;;;;;;;2.25;1.08;;;19.10;55.00;;;;;;5115002;27;20089;-62
2022/06/19 01:47:01;;;;;;;1.98;0.93;;;19.00;54.70;;;;;;5079724;28;20039;-62
2022/06/19 01:49:32;;;;;;;2.33;0.60;;;19.10;54.40;;;;;;5087070;28;20471;-62
2022/06/19 01:51:58;;;;;;;1.27;0.77;;;19.00;53.90;;;;;;5076887;28;20028;-62
2022/06/19 01:54:29;;;;;;;1.45;0.73;;;19.00;53.90;;;;;;5075390;28;20066;-62
2022/06/19 01:56:57;;;;;;;1.83;1.13;;;19.00;53.60;;;;;;5083107;28;20132;-62
2022/06/19 01:59:26;;;;;;;1.00;0.90;;;19.10;53.10;;;;;;5082227;28;20028;-63
2022/06/19 02:01:54;;;;;;;2.17;0.68;;;19.10;52.80;;;;;;5082955;28;20061;-63
2022/06/19 02:04:21;;;;;;;1.45;0.65;;;19.10;52.70;;;;;;5090758;28;20531;-62
2022/06/19 02:06:51;;;;;;;6.80;0.55;;;19.10;52.40;;;;;;5078263;28;20044;-63
2022/06/19 02:09:21;;;;;;;1.55;0.50;;;19.00;52.10;;;;;;5091651;28;20047;-61
2022/06/19 02:11:47;;;;;;;1.58;1.00;;;19.00;51.90;;;;;;5080217;28;20024;-61
2022/06/19 02:14:14;;;;;;;3.25;0.93;;;19.00;51.60;;;;;;5091870;28;20028;-61
2022/06/19 02:16:42;;;;;;;0.52;0.52;;;18.90;51.30;;;;;;5094580;28;20077;-61
2022/06/19 02:19:08;;;;;;;1.83;0.98;;;18.90;51.20;;;;;;5083273;28;20514;-61
2022/06/19 02:21:35;;;;;;;0.85;0.70;;;18.90;50.80;;;;;;5097048;28;20027;-61
2022/06/19 02:24:01;;;;;;;3.08;0.80;;;18.90;50.80;;;;;;5086561;28;20070;-61
2022/06/19 02:26:27;;;;;;;0.95;0.52;;;18.90;50.70;;;;;;5084529;28;20622;-61
2022/06/19 02:28:53;;;;;;;2.67;0.50;;;18.80;50.80;;;;;;5083905;28;20032;-61
2022/06/19 02:31:20;;;;;;;1.20;0.47;;;18.80;50.90;;;;;;5084847;28;20146;-60
2022/06/19 02:33:51;;;;;;;1.23;0.30;;;18.80;51.10;;;;;;5092915;28;20028;-61
2022/06/19 02:36:35;;;;;;;1.63;1.05;;;18.80;51.30;;;;;;5080908;28;20078;-60
2022/06/19 02:39:31;;;;;;;0.98;0.77;;;18.70;51.70;;;;;;5082395;28;20032;-60
2022/06/19 02:42:13;;;;;;;0.68;0.68;;;18.70;52.10;;;;;;5093156;28;20043;-61
2022/06/19 02:44:40;;;;;;;;;;;18.70;52.70;;;;;;5079673;28;20020;-60
2022/06/19 02:47:06;;;;;;;1.40;0.52;;;18.60;53.20;;;;;;5086873;28;19962;-60
2022/06/19 02:49:33;;;;;;;4.50;1.25;;;18.50;53.60;;;;;;5093334;28;20076;-61
2022/06/19 02:52:00;;;;;;;1.05;0.73;;;18.40;54.50;;;;;;5094786;28;20363;-61
2022/06/19 02:54:26;;;;;;;4.90;0.75;;;18.50;53.90;;;;;;5091605;28;20039;-61
2022/06/19 02:56:52;;;;;;;1.38;0.70;;;18.60;53.80;;;;;;5080337;28;20439;-61
2022/06/19 02:59:18;;;;;;;1.70;0.80;;;18.70;53.80;;;;;;5075184;28;20082;-59
2022/06/19 03:01:43;;;;;;;2.22;0.57;;;18.60;53.70;;;;;;5093560;28;20027;-62
2022/06/19 03:04:23;;;;;;;1.17;0.65;;;18.60;53.60;;;;;;5085786;28;20468;-61
2022/06/19 03:06:50;;;;;;;5.47;0.85;;;18.60;53.60;;;;;;5076499;28;20092;-62
2022/06/19 03:09:16;;;;;;;0.50;0.50;;;18.60;53.70;;;;;;5090086;28;20047;-60
2022/06/19 03:11:41;;;;;;;1.00;0.63;;;18.60;53.80;;;;;;5094124;28;20032;-61
2022/06/19 03:14:08;;;;;;;12.30;0.88;;;18.50;53.80;;;;;;5083393;28;20051;-61
2022/06/19 03:16:33;;;;;;;1.85;0.55;;;18.50;53.90;;;;;;5099441;28;20040;-61
2022/06/19 03:18:59;;;;;;;0.47;0.47;;;18.50;53.90;;;;;;5096998;28;20053;-60
2022/06/19 03:21:25;;;;;;;0.85;0.63;;;18.50;53.80;;;;;;5085117;28;20036;-60
2022/06/19 03:23:51;;;;;;;0.30;0.30;;;18.60;53.70;;;;;;5094523;28;20040;-60
2022/06/19 03:26:17;;;;;;;4.00;0.55;;;18.60;53.50;;;;;;5099886;28;20032;-60
2022/06/19 03:28:42;;;;;;;8.10;0.95;;;18.60;53.20;;;;;;5093060;28;20059;-60
2022/06/19 03:31:15;;;;;;;2.63;0.57;;;18.60;53.10;;;;;;5103011;27;20044;-60
2022/06/19 03:33:40;;;;;;;3.20;0.85;;;18.50;53.00;;;;;;5074966;28;20032;-60
2022/06/19 03:36:06;;;;;;;0.80;0.65;;;18.50;53.10;;;;;;5098213;28;20024;-61
2022/06/19 03:38:32;;;;;;;1.65;0.63;;;18.50;53.00;;;;;;5099015;28;20031;-61
2022/06/19 03:40:57;;;;;;;2.35;0.77;;;18.50;53.00;;;;;;5076898;28;20058;-62
2022/06/19 03:43:23;;;;;;;0.50;0.43;;;18.40;53.70;;;;;;5075749;28;20494;-62
2022/06/19 03:45:49;;;;;;;0.68;0.68;;;18.40;53.40;;;;;;5087843;28;20028;-62
2022/06/19 03:48:14;;;;;;;2.42;0.90;;;18.30;53.50;;;;;;5077606;28;20032;-60
2022/06/19 03:50:41;;;;;;;2.45;0.40;;;18.30;54.00;;;;;;5081712;28;20059;-60
2022/06/19 03:53:08;;;;;;;1.38;0.57;;;18.20;54.40;;;;;;5109864;27;20027;-60
2022/06/19 03:55:34;;;;;;;5.60;1.08;;;18.20;54.90;;;;;;5086320;28;20110;-62
2022/06/19 03:58:00;;;;;;;1.75;0.88;;;18.20;55.10;;;;;;5079759;28;20040;-61
2022/06/19 04:00:25;;;;;;;0.60;0.47;;;18.20;55.80;;;;;;5089396;28;20124;-60
2022/06/19 04:02:51;;;;;;;4.97;0.45;;;18.20;56.20;;;;;;5078181;28;20028;-60
2022/06/19 04:05:18;;;;;;;1.05;0.60;;;18.20;56.60;;;;;;5077894;28;20081;-60
2022/06/19 04:07:49;;;;;;;1.20;0.65;;;18.10;56.80;;;;;;5084381;28;20024;-60
2022/06/19 04:10:16;;;;;;;0.98;0.60;;;18.10;57.10;;;;;;5085728;28;20059;-60
2022/06/19 04:12:43;;;;;;;1.05;0.60;;;18.10;57.00;;;;;;5100880;28;20097;-60
2022/06/19 04:15:11;;;;;;;0.75;0.65;;;18.10;57.20;;;;;;5082414;28;20029;-60
2022/06/19 04:17:38;;;;;;;1.17;0.77;;;18.10;57.40;;;;;;5084951;28;20032;-60
2022/06/19 04:20:04;;;;;;;1.40;0.40;;;18.10;57.60;;;;;;5091931;28;20040;-62
2022/06/19 04:22:30;;;;;;;2.67;0.70;;;18.10;57.60;;;;;;5089317;28;20036;-62
2022/06/19 04:24:56;;;;;;;1.95;0.85;;;18.20;57.60;;;;;;5087080;28;20046;-62
2022/06/19 04:27:23;;;;;;;3.13;0.68;;;18.30;57.80;;;;;;5088983;28;20037;-62
2022/06/19 04:29:49;;;;;;;1.05;0.52;;;18.30;57.80;;;;;;5071983;28;20428;-62
2022/06/19 04:32:15;;;;;;;2.83;0.88;;;18.30;57.80;;;;;;5084730;28;20123;-62
2022/06/19 04:34:41;;;;;;;1.45;0.60;;;18.40;57.70;;;;;;5087263;28;20763;-63
2022/06/19 04:37:06;;;;;;;2.05;0.77;;;18.40;57.60;;;;;;5080870;28;20048;-61
2022/06/19 04:39:33;;;;;;;1.33;0.73;;;18.40;57.50;;;;;;5075362;28;20036;-62
2022/06/19 04:41:59;;;;;;;0.68;0.60;;;18.40;57.30;;;;;;5070722;28;20024;-62
2022/06/19 04:44:25;;;;;;;4.13;0.85;;;18.50;57.20;;;;;;5073524;28;20072;-62
2022/06/19 04:46:51;;;;;;;1.42;0.70;;;18.60;56.80;;;;;;5078376;28;20079;-62
2022/06/19 04:49:17;;;;;;;2.00;0.65;;;18.70;56.40;;;;;;5081360;28;20051;-62
2022/06/19 04:51:44;;;;;;;8.75;0.95;;;18.70;56.00;;;;;;5075408;28;20032;-62
2022/06/19 04:54:11;;;;;;;0.60;0.50;;;18.70;55.60;;;;;;5075034;28;20028;-61
2022/06/19 04:56:37;;;;;;;1.55;0.47;;;18.80;55.40;;;;;;5083627;28;20031;-63
2022/06/19 04:59:04;;;;;;;3.33;0.60;;;18.80;55.20;;;;;;5085247;28;20059;-62
2022/06/19 05:01:33;;;;;;;1.42;0.63;;;18.70;55.20;;;;;;5073112;28;20044;-62
2022/06/19 05:04:01;;;;;;;1.95;0.73;;;18.80;55.30;;;;;;5084768;28;20024;-62
2022/06/19 05:06:27;;;;;;;1.35;0.40;;;18.80;55.30;;;;;;5072235;28;20080;-62
2022/06/19 05:08:54;;;;;;;2.65;0.70;;;18.80;55.10;;;;;;5076730;28;20506;-62
2022/06/19 05:11:23;;;;;;;0.52;0.40;;;18.90;55.20;;;;;;5074512;28;20078;-63
2022/06/19 05:13:49;;;;;;;1.10;0.55;;;18.90;55.00;;;;;;5085603;28;20028;-62
2022/06/19 05:16:20;;;;;;;0.60;0.60;;;18.90;54.90;;;;;;5081126;28;20108;-63
2022/06/19 05:18:46;;;;;;;0.55;0.55;;;18.90;54.80;;;;;;5069466;28;20082;-64
2022/06/19 05:21:12;;;;;;;0.50;0.47;;;18.90;54.70;;;;;;5069624;28;20040;-62
2022/06/19 05:23:42;;;;;;;2.08;0.50;;;19.00;54.70;;;;;;5083620;28;20028;-62
2022/06/19 05:26:21;;;;;;;1.23;0.30;;;19.10;54.50;;;;;;5070177;28;20365;-63
2022/06/19 05:28:48;;;;;;;1.95;0.70;;;19.10;54.40;;;;;;5078770;28;20105;-63
2022/06/19 05:31:14;;;;;;;0.55;0.55;;;19.20;54.30;;;;;;5075349;28;20020;-63
2022/06/19 05:33:40;;;;;;;0.30;0.30;;;19.30;54.20;;;;;;5072614;28;20044;-62
2022/06/19 05:36:06;;;;;;;1.10;0.55;;;19.40;54.10;;;;;;5071669;28;20078;-62
2022/06/19 05:38:32;;;;;;;1.70;0.40;;;19.40;53.80;;;;;;5076894;28;20028;-61
2022/06/19 05:40:59;;;;;;;0.65;0.40;;;19.50;53.60;;;;;;5075828;28;20463;-61
2022/06/19 05:43:27;;;;;;;1.70;0.28;;;19.60;53.30;;;;;;5080618;28;20110;-61
2022/06/19 05:46:01;;;;;;;1.55;0.70;;;19.70;53.10;;;;;;5070797;28;20043;-61
2022/06/19 05:48:28;;;;;;;0.93;0.80;;;19.80;52.90;;;;;;5086428;28;20033;-61
2022/06/19 05:51:03;;;;;;;1.88;0.80;;;19.90;52.50;;;;;;5071285;28;20029;-61
2022/06/19 05:53:31;;;;;;;0.63;0.57;;;19.90;52.40;;;;;;5082208;28;20024;-61
2022/06/19 05:55:57;;;;;;;3.78;0.43;;;19.90;52.30;;;;;;5075223;28;20112;-61
2022/06/19 05:58:23;;;;;;;0.40;0.40;;;19.90;52.30;;;;;;5094075;28;20140;-60
2022/06/19 06:00:49;;;;;;;4.95;0.90;;;19.90;52.40;;;;;;5074104;28;20040;-61
2022/06/19 06:03:19;;;;;;;0.88;0.45;;;19.90;52.20;;;;;;5085712;28;20028;-62
2022/06/19 06:05:45;;;;;;;1.40;0.40;;;20.00;52.40;;;;;;5074843;28;20032;-61
2022/06/19 06:08:11;;;;;;;0.75;0.45;;;20.00;52.20;;;;;;5087400;28;20143;-60
2022/06/19 06:10:37;;;;;;;1.20;0.77;;;20.10;52.10;;;;;;5083470;28;20055;-63
2022/06/19 06:13:03;;;;;;;1.00;0.55;;;20.20;51.70;;;;;;5072252;28;20471;-61
2022/06/19 06:15:29;;;;;;;1.00;0.47;;;20.20;51.60;;;;;;5071236;28;20044;-61
2022/06/19 06:17:55;;;;;;;0.80;0.65;;;20.20;51.10;;;;;;5087580;28;20035;-63
2022/06/19 06:20:21;;;;;;;0.73;0.30;;;20.30;51.00;;;;;;5068257;28;20055;-61
2022/06/19 06:22:47;;;;;;;0.38;0.38;;;20.40;50.80;;;;;;5078243;28;20033;-62
2022/06/19 06:25:12;;;;;;;2.30;0.70;;;20.50;50.10;;;;;;5079198;28;20032;-61
2022/06/19 06:27:38;;;;;;;0.25;0.25;;;20.70;50.00;;;;;;5074028;28;20021;-61
2022/06/19 06:30:05;;;;;;;0.20;0.20;;;20.80;49.60;;;;;;5074669;28;20060;-61
2022/06/19 06:32:30;;;;;;;1.48;0.50;;;20.80;48.80;;;;;;5070153;28;20024;-60
2022/06/19 06:34:56;;;;;;;0.73;0.50;;;20.70;48.60;;;;;;5084830;28;20097;-61
2022/06/19 06:37:22;;;;;;;1.50;0.50;;;20.70;48.30;;;;;;5088572;28;20059;-61
2022/06/19 06:39:48;;;;;;;2.47;0.50;;;20.60;48.00;;;;;;5099524;28;20475;-62
2022/06/19 06:42:14;;;;;;;1.08;0.47;;;20.60;48.00;;;;;;5091197;28;20016;-63
2022/06/19 06:44:40;;;;;;;0.52;0.52;;;20.60;48.20;;;;;;5086529;28;20475;-63
2022/06/19 06:47:05;;;;;;;0.65;0.22;;;20.50;47.80;;;;;;5089894;28;20074;-63
2022/06/19 06:49:32;;;;;;;0.63;0.63;;;20.40;47.70;;;;;;5091681;28;20021;-63
2022/06/19 06:51:57;;;;;;;4.43;0.98;;;20.40;47.40;;;;;;5086352;28;20562;-62
2022/06/19 06:54:23;;;;;;;0.50;0.43;;;20.30;47.60;;;;;;5089271;28;20052;-63
2022/06/19 06:56:49;;;;;;;0.68;0.50;;;20.30;47.60;;;;;;5088949;28;20033;-63
2022/06/19 06:59:14;;;;;;;3.03;0.40;;;20.20;47.80;;;;;;5090856;28;20638;-63
2022/06/19 07:01:40;;;;;;;3.17;0.80;;;20.20;48.40;;;;;;5089327;28;20570;-63
2022/06/19 07:04:07;;;;;;;0.43;0.43;;;20.10;48.80;;;;;;5092111;28;20028;-63
2022/06/19 07:06:34;;;;;;;2.25;0.45;;;20.00;49.30;;;;;;5088215;28;20035;-62
2022/06/19 07:09:00;;;;;;;1.02;0.52;;;19.90;50.10;;;;;;5087621;28;20047;-61
2022/06/19 07:11:38;;;;;;;0.50;0.30;;;19.80;50.60;;;;;;5088279;28;20114;-61
2022/06/19 07:14:05;;;;;;;0.57;0.47;;;19.80;51.60;;;;;;5092768;28;20140;-61
2022/06/19 07:16:30;;;;;;;0.28;0.28;;;19.70;52.40;;;;;;5084767;28;20247;-60
2022/06/19 07:18:56;;;;;;;0.43;0.30;;;19.60;53.40;;;;;;5079135;28;20020;-63
2022/06/19 07:21:22;;;;;;;0.30;0.30;;;19.50;54.30;;;;;;5085702;28;20031;-62
2022/06/19 07:23:48;;;;;;;1.50;0.88;;;19.40;55.00;;;;;;5075222;28;20513;-61
2022/06/19 07:26:17;;;;;;;0.30;0.30;;;19.30;56.30;;;;;;5074877;28;20032;-62
2022/06/19 07:28:43;;;;;;;2.28;1.02;;;19.20;57.00;;;;;;5080033;28;20103;-62
2022/06/19 07:31:10;;;;;;;0.85;0.40;;;19.10;57.90;;;;;;5082900;28;20378;-62
2022/06/19 07:33:37;;;;;;;0.63;0.50;;;19.00;58.70;;;;;;5088382;28;20028;-61
2022/06/19 07:36:08;;;;;;;2.50;0.95;;;18.90;59.60;;;;;;5091383;28;20063;-62
2022/06/19 07:38:34;;;;;;;3.42;1.08;;;18.70;60.10;;;;;;5085168;28;20620;-61
2022/06/19 07:41:00;;;;;;;2.47;0.80;;;18.60;60.90;;;;;;5086659;28;20621;-61
2022/06/19 07:43:27;;;;;;;1.77;0.47;;;18.50;61.10;;;;;;5078031;28;20039;-61
2022/06/19 07:45:53;;;;;;;3.65;1.02;;;18.60;61.60;;;;;;5088279;28;20467;-61
2022/06/19 07:51:03;;;;;;;0.95;0.70;;;18.50;63.50;;;;;;5077540;28;20043;-61
2022/06/19 07:53:28;;;;;;;6.32;1.35;;;18.50;63.80;;;;;;5082428;28;20383;-61
2022/06/19 07:55:54;;;;;;;1.17;0.70;;;18.40;64.00;;;;;;5073000;28;20023;-62
2022/06/19 07:58:20;;;;;;;1.40;1.02;;;18.40;64.60;;;;;;5087075;28;20094;-61
2022/06/19 08:00:46;;;;;;;1.77;0.50;;;18.50;65.30;;;;;;5085375;28;20465;-62
2022/06/19 08:03:11;;;;;;;0.75;0.55;;;18.40;65.20;;;;;;5075883;28;20108;-62
2022/06/19 08:05:38;;;;;;;1.73;1.10;;;18.40;65.50;;;;;;5080146;28;20039;-62
2022/06/19 08:08:13;;;;;;;0.57;0.57;;;18.30;65.80;;;;;;5086098;28;20448;-61
2022/06/19 08:10:42;;;;;;;3.22;1.00;;;18.20;66.10;;;;;;5092651;28;20040;-62
2022/06/19 08:13:09;;;;;;;2.78;0.73;;;18.20;66.50;;;;;;5095862;28;20016;-61
2022/06/19 08:15:35;;;;;;;3.63;1.10;;;18.10;67.40;;;;;;5097501;28;20536;-62
2022/06/19 08:18:01;;;;;;;1.45;1.05;;;18.10;67.80;;;;;;5084159;28;20488;-62
2022/06/19 08:20:27;;;;;;;0.80;0.57;;;18.10;68.00;;;;;;5072645;28;20039;-62
2022/06/19 08:22:53;;;;;;;0.75;0.65;;;18.10;67.90;;;;;;5088405;28;20443;-62
2022/06/19 08:25:21;;;;;;;2.08;0.70;;;18.10;67.90;;;;;;5071274;28;20199;-62
2022/06/19 08:27:49;;;;;;;9.80;1.10;;;18.10;67.80;;;;;;5093609;28;20505;-62
2022/06/19 08:30:27;;;;;;;3.33;0.63;;;18.00;68.20;;;;;;5089705;28;20063;-60
2022/06/19 08:32:53;;;;;;;2.75;1.02;;;18.00;68.30;;;;;;5079221;28;20656;-61
2022/06/19 08:35:20;;;;;;;2.47;0.88;;;17.90;68.90;;;;;;5076595;28;20047;-62
2022/06/19 08:37:49;;;;;;;1.55;0.50;;;18.00;69.10;;;;;;5084824;28;20430;-61
2022/06/19 08:40:27;;;;;;;2.60;0.80;;;18.00;68.90;;;;;;5078303;28;20043;-62
2022/06/19 08:42:52;;;;;;;1.35;0.70;;;18.00;69.30;;;;;;5070469;28;20039;-62
2022/06/19 08:45:30;;;;;;;1.60;0.93;;;18.00;69.40;;;;;;5077657;28;20028;-63
2022/06/19 08:48:01;;;;;;;4.20;1.30;;;18.10;69.20;;;;;;5082770;28;20054;-64
2022/06/19 08:50:47;;;;;;;0.73;0.50;;;18.10;69.20;;;;;;5090810;28;21372;-62
2022/06/19 08:53:18;;;;;;;5.43;0.70;;;18.10;69.30;;;;;;5094457;28;20689;-62
2022/06/19 08:55:52;;;;;;;3.55;0.90;;;18.10;69.40;;;;;;5083303;28;20034;-62
2022/06/19 08:58:30;;;;;;;2.30;1.08;;;18.20;69.10;;;;;;5070477;28;20036;-62
2022/06/19 09:01:25;;;;;;;0.77;0.73;;;18.20;69.10;;;;;;5083254;28;20032;-62
2022/06/19 09:07:04;;;;;;;3.92;1.00;;;18.10;69.80;;;;;;5073489;28;20039;-61
2022/06/19 09:09:52;;;;;;;1.25;0.50;;;18.00;69.60;;;;;;5084613;28;20050;-62
2022/06/19 09:12:42;;;;;;;0.82;0.65;;;18.10;69.60;;;;;;5071392;28;20028;-62
2022/06/19 09:15:23;;;;;;;0.88;0.47;;;18.20;69.50;;;;;;5080272;28;20032;-62
2022/06/19 09:18:01;;;;;;;0.32;0.30;;;18.20;69.50;;;;;;5079963;28;20426;-62
2022/06/19 09:20:29;;;;;;;1.77;1.00;;;18.30;69.40;;;;;;5090359;28;20529;-63
2022/06/19 09:23:03;;;;;;;2.55;0.70;;;18.20;69.20;;;;;;5084052;28;20033;-62
2022/06/19 09:25:40;;;;;;;1.80;0.60;;;18.30;69.20;;;;;;5088986;28;20044;-62
2022/06/19 09:28:19;;;;;;;1.58;1.00;;;18.30;69.50;;;;;;5077477;28;20388;-61
2022/06/19 09:30:53;;;;;;;4.00;1.25;;;18.40;69.60;;;;;;5069139;28;21172;-62
2022/06/19 09:33:46;;;;;;;3.25;1.00;;;18.60;69.70;;;;;;5068032;28;20024;-62
2022/06/19 09:36:36;;;;;;;2.70;1.00;;;18.80;69.40;;;;;;5060942;28;20029;-63
2022/06/19 09:39:12;;;;;;;4.95;0.85;;;18.90;69.00;;;;;;5068633;28;20028;-63
2022/06/19 09:41:43;;;;;;;1.35;0.95;;;19.10;68.80;;;;;;5082838;28;20047;-61
2022/06/19 09:44:18;;;;;;;4.03;1.27;;;19.20;68.60;;;;;;5072161;28;20020;-61
2022/06/19 09:46:50;;;;;;;3.33;0.40;;;19.20;68.30;;;;;;5069426;28;20036;-62
2022/06/19 09:49:24;;;;;;;3.50;0.75;;;19.30;68.00;;;;;;5081274;28;20063;-62
2022/06/19 09:52:40;;;;;;;0.30;0.30;;;19.40;67.60;;;;;;5087478;28;20044;-63
2022/06/19 09:55:32;;;;;;;3.30;0.88;;;19.50;66.90;;;;;;5085329;28;20040;-63
2022/06/19 09:58:12;;;;;;;2.35;0.55;;;19.70;66.20;;;;;;5070764;28;20054;-62
2022/06/19 10:00:40;;;;;;;0.80;0.70;;;19.90;65.50;;;;;;5081975;28;20026;-62
2022/06/19 10:03:24;;;;;;;4.00;0.55;;;20.10;64.60;;;;;;5088362;28;20024;-63
2022/06/19 10:06:09;;;;;;;0.68;0.30;;;20.20;64.50;;;;;;5085301;28;20568;-62
2022/06/19 10:08:58;;;;;;;1.08;0.47;;;20.60;64.50;;;;;;5081451;28;20086;-62
2022/06/19 10:11:31;;;;;;;0.77;0.50;;;20.90;64.00;;;;;;5081618;28;20158;-63
2022/06/19 10:14:08;;;;;;;0.63;0.50;;;21.10;63.40;;;;;;5078912;28;20056;-62
2022/06/19 10:16:48;;;;;;;0.98;0.30;;;21.30;62.80;;;;;;5083363;28;20031;-62
2022/06/19 10:19:40;;;;;;;0.60;0.60;;;21.40;61.80;;;;;;5080117;28;20120;-63
2022/06/19 10:22:24;;;;;;;0.98;0.30;;;21.50;61.40;;;;;;5068817;28;20036;-63
2022/06/19 10:25:26;;;;;;;0.40;0.40;;;21.50;60.90;;;;;;5079904;28;20030;-62
2022/06/19 10:28:19;;;;;;;1.27;0.40;;;21.70;60.80;;;;;;5075420;28;20038;-62
2022/06/19 10:30:57;;;;;;;0.57;0.40;;;21.80;59.70;;;;;;5086258;28;20074;-63
2022/06/19 10:34:00;;;;;;;1.85;0.68;;;21.70;59.30;;;;;;5069590;28;20024;-63
2022/06/19 10:36:58;;;;;;;1.85;1.00;;;21.70;59.50;;;;;;5076258;28;20043;-62
2022/06/19 10:39:56;;;;;;;0.63;0.40;;;21.60;59.20;;;;;;5062183;28;20024;-63
2022/06/19 10:42:50;;;;;;;0.30;0.30;;;21.70;59.30;;;;;;5084437;28;20352;-63
2022/06/19 10:45:27;;;;;;;0.80;0.40;;;21.70;58.80;;;;;;5075444;28;20043;-63
2022/06/19 10:48:18;;;;;;;0.55;0.40;;;21.60;58.70;;;;;;5087047;28;20024;-62
2022/06/19 10:51:02;;;;;;;1.00;0.32;;;21.70;58.60;;;;;;5081767;28;20032;-62
2022/06/19 10:53:51;;;;;;;0.90;0.55;;;21.80;58.30;;;;;;5081577;28;20028;-62
2022/06/19 10:56:29;;;;;;;1.58;0.60;;;22.00;58.10;;;;;;5071514;28;20073;-63
2022/06/19 10:58:56;;;;;;;0.50;0.43;;;22.00;58.30;;;;;;5081801;28;20068;-62
2022/06/19 11:04:30;;;;;;;1.17;0.82;;;22.60;59.00;;;;;;5073612;28;20038;-62
2022/06/19 11:07:07;;;;;;;3.05;1.05;;;22.80;57.70;;;;;;5073658;28;20104;-63
2022/06/19 11:09:52;;;;;;;1.75;1.02;;;23.00;57.90;;;;;;5082137;28;20417;-62
2022/06/19 11:12:34;;;;;;;1.02;0.80;;;23.20;58.20;;;;;;5074611;28;20486;-62
2022/06/19 11:15:02;;;;;;;8.13;1.42;;;23.00;57.30;;;;;;5074911;28;20031;-63
2022/06/19 11:17:30;;;;;;;5.40;1.30;;;22.70;57.60;;;;;;5082922;28;20075;-62
2022/06/19 11:19:56;;;;;;;1.48;0.60;;;22.70;57.80;;;;;;5075969;28;20483;-62
2022/06/19 11:22:24;;;;;;;1.55;0.57;;;22.70;57.80;;;;;;5081874;28;20109;-62
2022/06/19 11:24:51;;;;;;;0.50;0.50;;;22.90;58.40;;;;;;5076749;28;20047;-62
2022/06/19 11:27:20;;;;;;;0.82;0.82;;;23.00;57.90;;;;;;5079544;28;20021;-61
2022/06/19 11:29:49;;;;;;;0.73;0.73;;;23.10;57.80;;;;;;5080691;28;20029;-62
2022/06/19 11:32:18;;;;;;;0.82;0.60;;;23.20;57.70;;;;;;5083042;28;20028;-62
2022/06/19 11:34:59;;;;;;;1.27;0.70;;;23.30;57.40;;;;;;5085448;28;20122;-61
2022/06/19 11:37:36;;;;;;;0.95;0.88;;;23.20;56.80;;;;;;5081781;28;20032;-61
2022/06/19 11:40:05;;;;;;;1.27;0.98;;;23.30;56.90;;;;;;5086405;28;20039;-61
2022/06/19 11:42:51;;;;;;;0.85;0.40;;;23.30;56.20;;;;;;5087055;28;20024;-61
2022/06/19 11:45:17;;;;;;;0.93;0.60;;;23.20;56.20;;;;;;5083898;28;20060;-62
2022/06/19 11:47:46;;;;;;;2.67;0.93;;;23.00;56.90;;;;;;5087106;28;20063;-61
2022/06/19 11:50:32;;;;;;;2.95;1.05;;;22.90;57.10;;;;;;5100028;28;20505;-61
2022/06/19 11:53:08;;;;;;;1.13;0.82;;;23.00;57.20;;;;;;5095242;28;20032;-61
2022/06/19 11:55:47;;;;;;;0.57;0.47;;;23.10;57.10;;;;;;5089430;28;20032;-61
2022/06/19 11:58:22;;;;;;;0.45;0.43;;;23.30;56.80;;;;;;5087881;28;20032;-63
2022/06/19 12:01:14;;;;;;;0.70;0.68;;;23.20;56.80;;;;;;5089568;28;20737;-63
2022/06/19 12:03:48;;;;;;;1.30;0.73;;;23.10;56.90;;;;;;5082334;28;20062;-61
2022/06/19 12:06:17;;;;;;;0.40;0.40;;;23.20;56.40;;;;;;5129131;27;20467;-62
2022/06/19 12:09:00;;;;;;;3.67;0.95;;;23.20;56.20;;;;;;5092023;28;20048;-62
2022/06/19 12:11:37;;;;;;;1.15;0.60;;;23.20;56.50;;;;;;5092669;28;20032;-62
2022/06/19 12:14:08;;;;;;;0.35;0.30;;;23.30;56.10;;;;;;5086673;28;20024;-63
2022/06/19 12:16:35;;;;;;;0.40;0.40;;;23.40;56.00;;;;;;5086729;28;20028;-63
2022/06/19 12:19:33;;;;;;;1.15;0.95;;;23.20;55.70;;;;;;5089795;28;20028;-62
2022/06/19 12:22:04;;;;;;;0.50;0.50;;;23.00;56.20;;;;;;5053769;28;20047;-63
2022/06/19 12:24:50;;;;;;;0.95;0.85;;;22.70;56.50;;;;;;5088462;28;20032;-63
2022/06/19 12:27:19;;;;;;;2.78;1.02;;;22.50;57.30;;;;;;5092890;28;20073;-61
2022/06/19 12:29:50;;;;;;;1.15;0.70;;;22.30;57.80;;;;;;5092754;28;20030;-61
2022/06/19 12:32:30;;;;;;;3.15;0.95;;;22.10;58.30;;;;;;5080945;28;20031;-60
2022/06/19 12:35:00;;;;;;;1.80;0.90;;;21.70;58.80;;;;;;5090996;28;20035;-61
2022/06/19 12:37:28;;;;;;;1.90;0.93;;;21.40;59.70;;;;;;5081941;28;20044;-61
2022/06/19 12:39:55;;;;;;;2.90;1.00;;;21.20;60.20;;;;;;5086365;28;20032;-61
2022/06/19 12:42:32;;;;;;;2.45;0.80;;;20.90;60.80;;;;;;5086578;28;20043;-61
2022/06/19 12:45:16;;;;;;;0.47;0.38;;;20.80;61.10;;;;;;5077792;28;20024;-61
2022/06/19 12:48:04;;;;;;;2.08;0.90;;;20.80;61.30;;;;;;5083134;28;20040;-62
2022/06/19 12:50:43;;;;;;;2.15;0.70;;;20.80;61.20;;;;;;5081215;28;20085;-60
2022/06/19 12:53:48;;;;;;;1.67;1.13;;;20.90;61.10;;;;;;5085513;28;20491;-61
2022/06/19 12:56:55;;;;;;;4.43;1.27;;;21.00;61.00;;;;;;5082159;28;20052;-61
2022/06/19 13:00:03;;;;;;;0.60;0.60;;;21.20;60.70;;;;;;5078638;28;20043;-61
2022/06/19 13:02:47;;;;;;;2.35;1.00;;;21.40;60.20;;;;;;5077125;28;20074;-62
2022/06/19 13:05:29;;;;;;;0.60;0.60;;;21.70;60.20;;;;;;5083801;28;20483;-60
2022/06/19 13:08:20;;;;;;;0.65;0.60;;;22.10;59.80;;;;;;5088839;28;20127;-61
2022/06/19 13:10:55;;;;;;;0.55;0.52;;;22.20;59.10;;;;;;5077171;28;20026;-62
2022/06/19 13:13:23;;;;;;;0.73;0.43;;;22.40;58.70;;;;;;5075369;28;20027;-62
2022/06/19 13:15:49;;;;;;;0.60;0.60;;;22.40;58.50;;;;;;5095127;28;20051;-60
2022/06/19 13:18:47;;;;;;;0.70;0.65;;;22.50;58.40;;;;;;5075730;28;20115;-61
2022/06/19 13:21:24;;;;;;;0.60;0.60;;;22.40;58.20;;;;;;5082620;28;20060;-62